createdAt,value
2024-05-09T00:07:04.113Z,64.58
2024-05-09T00:17:04.667Z,64.58
2024-05-09T00:27:05.211Z,65.63
2024-05-09T00:37:05.894Z,66.89
2024-05-09T00:47:06.630Z,66.58
2024-05-09T00:57:07.233Z,67.13
2024-05-09T01:07:07.788Z,67.43
2024-05-09T01:17:08.408Z,68.28
2024-05-09T01:27:09.010Z,69.44
2024-05-09T01:37:09.544Z,69.54
2024-05-09T01:47:10.261Z,69.44
2024-05-09T01:57:10.842Z,69.54
2024-05-09T02:07:11.398Z,70.09
2024-05-09T02:17:12.073Z,71.04
2024-05-09T02:27:12.684Z,71.45
2024-05-09T02:37:14.107Z,71.69
2024-05-09T02:47:13.747Z,72.51
2024-05-09T02:57:14.260Z,72.34
2024-05-09T03:07:14.786Z,73.50
2024-05-09T03:17:15.279Z,74.22
2024-05-09T03:27:15.812Z,74.36
2024-05-09T03:37:16.288Z,74.87
2024-05-09T03:47:16.989Z,74.63
2024-05-09T03:57:17.587Z,74.02
2024-05-09T04:07:18.091Z,75.63
2024-05-09T04:17:18.591Z,75.90
2024-05-09T04:27:19.084Z,75.08
2024-05-09T04:37:19.582Z,74.63
2024-05-09T04:47:20.314Z,74.29
2024-05-09T04:57:20.838Z,68.19
2024-05-09T05:07:28.347Z,65.10
2024-05-09T05:17:21.937Z,62.70
2024-05-09T05:27:22.458Z,62.59
2024-05-09T05:37:22.913Z,61.41
2024-05-09T05:47:23.650Z,62.18
2024-05-09T05:57:24.171Z,63.44
2024-05-09T06:07:24.699Z,62.66
2024-05-09T06:17:25.327Z,66.39
2024-05-09T06:27:25.874Z,63.92
2024-05-09T06:37:26.356Z,62.94
2024-05-09T06:47:27.037Z,61.90
2024-05-09T06:57:27.593Z,61.25
2024-05-09T07:07:28.137Z,60.18
2024-05-09T07:17:28.821Z,57.99
2024-05-09T07:27:29.702Z,57.25
2024-05-09T07:37:29.913Z,55.60
2024-05-09T07:48:57.300Z,55.80
2024-05-09T07:57:32.325Z,54.33
2024-05-09T08:07:31.863Z,54.03
2024-05-09T08:17:32.521Z,52.99
2024-05-09T08:27:33.234Z,51.55
2024-05-09T08:37:38.695Z,49.80
2024-05-09T08:47:36.010Z,48.99
2024-05-09T08:57:35.039Z,47.23
2024-05-09T09:07:35.619Z,47.20
2024-05-09T09:17:36.273Z,46.48
2024-05-09T09:27:36.827Z,44.71
2024-05-09T09:37:37.314Z,43.12
2024-05-09T09:47:37.981Z,43.51
2024-05-09T09:57:38.494Z,41.36
2024-05-09T10:07:38.978Z,41.05
2024-05-09T10:17:39.522Z,40.94
2024-05-09T10:27:40.105Z,41.02
2024-05-09T10:37:40.604Z,41.19
2024-05-09T10:47:41.234Z,38.75
2024-05-09T10:57:41.843Z,38.75
2024-05-09T11:07:49.352Z,37.32
2024-05-09T11:17:42.882Z,35.39
2024-05-09T11:27:43.499Z,34.39
2024-05-09T11:37:43.930Z,35.18
2024-05-09T11:47:44.498Z,33.45
2024-05-09T11:57:45.092Z,34.46
2024-05-09T12:07:45.574Z,34.14
2024-05-09T12:17:49.488Z,33.55
2024-05-09T12:27:46.898Z,33.36
2024-05-09T12:37:47.366Z,33.44
2024-05-09T12:47:47.990Z,34.12
2024-05-09T12:57:48.566Z,35.08
2024-05-09T13:07:49.069Z,35.05
2024-05-09T13:17:49.636Z,35.36
2024-05-09T13:27:50.233Z,35.86
2024-05-09T13:37:50.730Z,35.95
2024-05-09T13:47:51.434Z,36.33
2024-05-09T13:57:52.117Z,37.04
2024-05-09T14:07:52.616Z,36.63
2024-05-09T14:17:53.342Z,36.41
2024-05-09T14:27:54.157Z,36.03
2024-05-09T14:37:54.787Z,36.21
2024-05-09T14:47:55.371Z,36.32
2024-05-09T14:57:55.973Z,36.11
2024-05-09T15:07:56.501Z,36.11
2024-05-09T15:17:57.142Z,36.11
2024-05-09T15:27:57.786Z,37.02
2024-05-09T15:37:58.385Z,36.61
2024-05-09T15:47:59.124Z,37.54
2024-05-09T15:57:59.403Z,36.63
2024-05-09T16:07:59.875Z,36.13
2024-05-09T16:18:00.653Z,36.25
2024-05-09T16:28:00.941Z,37.46
2024-05-09T16:38:01.546Z,37.35
2024-05-09T16:48:02.267Z,37.47
2024-05-09T16:58:03.328Z,39.50
2024-05-09T17:08:03.469Z,38.88
2024-05-09T17:18:04.155Z,38.29
2024-05-09T17:28:04.918Z,38.71
2024-05-09T17:38:05.124Z,38.11
2024-05-09T17:48:06.131Z,38.43
2024-05-09T17:58:06.405Z,38.83
2024-05-09T18:08:06.944Z,39.86
2024-05-09T18:18:08.013Z,40.89
2024-05-09T18:28:08.391Z,42.01
2024-05-09T18:38:08.973Z,42.84
2024-05-09T18:48:10.032Z,43.34
2024-05-09T18:58:10.327Z,44.07
2024-05-09T19:08:10.901Z,44.70
2024-05-09T19:18:11.589Z,45.53
2024-05-09T19:28:12.389Z,46.25
2024-05-09T19:38:12.932Z,47.39
2024-05-09T19:48:13.530Z,48.70
2024-05-09T19:58:14.248Z,48.22
2024-05-09T20:08:14.843Z,49.13
2024-05-09T20:18:15.556Z,50.26
2024-05-09T20:28:16.177Z,51.30
2024-05-09T20:38:16.697Z,51.62
2024-05-09T20:48:17.424Z,52.56
2024-05-09T20:58:18.071Z,53.17
2024-05-09T21:08:18.613Z,53.09
2024-05-09T21:18:19.986Z,53.80
2024-05-09T21:28:20.072Z,54.11
2024-05-09T21:38:20.570Z,55.04
2024-05-09T21:48:21.188Z,54.64
2024-05-09T21:58:21.967Z,54.84
2024-05-09T22:08:29.574Z,55.17
2024-05-09T22:18:23.100Z,55.78
2024-05-09T22:28:23.823Z,56.39
2024-05-09T22:38:24.406Z,56.79
2024-05-09T22:48:25.704Z,56.90
2024-05-09T22:58:25.999Z,57.43
2024-05-09T23:08:26.117Z,58.34
2024-05-09T23:18:26.718Z,58.14
2024-05-09T23:28:27.366Z,57.93
2024-05-09T23:38:28.006Z,59.39
2024-05-09T23:48:28.624Z,59.69
2024-05-09T23:58:29.225Z,59.59
